Mermentau — WCY2042 — position and weather

sailwx.info

Track history (hours):
 
Tides and Currents Weather Stations Pressure Air Temp Water Temp Dewpoint Dewpoint Depression Visibility Wind Speed Wind Dir Waves Ship Positions

Mermentau

Owner: OMEGA PROTEIN INC., Moss Point, MS. More information available from US FCC via Universal Licensing System and Coast Guard Vessel Documentation Center.

Last reported at 2017-Sep-22 01:53 UTC. Time now 2017-Sep-23 23:48 UTC.
Position N 29°49' W 092°08'.

Length 45 m; draft 3.4 m.

Type: Fishing. MMSI: 367331320.

Date/timePositionNaut miles runAvg speedWind from/ knotsBaromVisibWave heightAir tempDewpointWater temp
2017-Sep-22 01:53N 29°49' W 092°08'0 0.0
2017-Sep-22 01:29N 29°49' W 092°08'0 0.0
2017-Sep-22 00:59N 29°49' W 092°08'0 0.0
2017-Sep-22 00:29N 29°49' W 092°08'0 0.0
2017-Sep-21 23:59N 29°49' W 092°08'0 0.0
2017-Sep-21 23:29N 29°49' W 092°08'0 0.0
2017-Sep-21 22:59N 29°49' W 092°08'0 0.0
2017-Sep-21 22:29N 29°49' W 092°08'0 0.0
2017-Sep-21 21:59N 29°49' W 092°08'0 0.0
2017-Sep-21 21:26N 29°49' W 092°08'0 0.0
2017-Sep-21 20:59N 29°49' W 092°08'0 0.0
2017-Sep-21 20:29N 29°49' W 092°08'0 0.0
2017-Sep-21 19:59N 29°49' W 092°08'0 0.0
2017-Sep-21 19:26N 29°49' W 092°08'0 0.1
2017-Sep-21 18:58N 29°49' W 092°08'0 0.0
2017-Sep-21 18:28N 29°49' W 092°08'2 4.1
2017-Sep-21 18:00N 29°47' W 092°09'4 8.4
2017-Sep-21 17:30N 29°45' W 092°13'5 9.5
2017-Sep-21 17:00N 29°41' W 092°15'3 0.6
2017-Sep-21 12:43N 29°38' W 092°16'2 8.4
2017-Sep-21 12:26N 29°41' W 092°15'4 9.3
2017-Sep-21 12:01N 29°44' W 092°14'4 8.9
2017-Sep-21 11:30N 29°47' W 092°10'3 5.5
2017-Sep-21 11:01N 29°49' W 092°08'0 0.4
2017-Sep-21 10:29N 29°49' W 092°08'0 0.0
2017-Sep-21 09:59N 29°49' W 092°08'0 0.0
2017-Sep-21 09:29N 29°49' W 092°08'0 0.0
2017-Sep-21 08:56N 29°49' W 092°08'0 0.0
2017-Sep-21 08:29N 29°49' W 092°08'0 0.0
2017-Sep-21 07:56N 29°49' W 092°08'0 0.0
2017-Sep-21 07:29N 29°49' W 092°08'0 0.0
2017-Sep-21 06:59N 29°49' W 092°08'0 0.0
2017-Sep-21 06:26N 29°49' W 092°08'0 0.0
2017-Sep-21 05:59N 29°49' W 092°08'0 0.0
2017-Sep-21 05:26N 29°49' W 092°08'0 0.0
2017-Sep-21 04:59N 29°49' W 092°08'0 0.0
2017-Sep-21 04:20N 29°49' W 092°08'0 0.0
2017-Sep-21 03:59N 29°49' W 092°08'0 0.0
2017-Sep-21 03:29N 29°49' W 092°08'0 0.0
2017-Sep-21 02:59N 29°49' W 092°08'0 0.0
2017-Sep-21 02:29N 29°49' W 092°08'0 0.0
2017-Sep-21 01:56N 29°49' W 092°08'0 0.0
2017-Sep-21 01:29N 29°49' W 092°08'0 0.0
2017-Sep-21 00:59N 29°49' W 092°08'0 0.0
2017-Sep-21 00:29N 29°49' W 092°08'0 0.0
2017-Sep-20 23:59N 29°49' W 092°08'0 0.0
2017-Sep-20 23:23N 29°49' W 092°08'0 0.0
2017-Sep-20 22:44N 29°49' W 092°08'0 0.0
2017-Sep-20 22:20N 29°49' W 092°08'0 0.0
2017-Sep-20 21:56N 29°49' W 092°08'0 0.0
2017-Sep-20 21:26N 29°49' W 092°08'0 0.0
2017-Sep-20 20:59N 29°49' W 092°08'0 0.0
2017-Sep-20 20:29N 29°49' W 092°08'0 0.0
2017-Sep-20 19:58N 29°49' W 092°08'0 0.0
2017-Sep-20 19:29N 29°49' W 092°08'0 0.0
2017-Sep-20 18:58N 29°49' W 092°08'1 2.2
2017-Sep-20 18:30N 29°48' W 092°08'4 7.7
2017-Sep-20 18:01N 29°46' W 092°11'5 9.5
2017-Sep-20 17:31N 29°42' W 092°15'2 0.5
2017-Sep-20 12:53N 29°40' W 092°15'3 8.2
2017-Sep-20 12:30N 29°43' W 092°15'5 9.5
2017-Sep-20 12:00N 29°46' W 092°11'3 6.0
2017-Sep-20 11:31N 29°48' W 092°08'1 2.2
2017-Sep-20 10:58N 29°49' W 092°08'0 0.0
2017-Sep-20 10:29N 29°49' W 092°08'0 0.0
2017-Sep-20 09:59N 29°49' W 092°08'0 0.0
2017-Sep-20 09:29N 29°49' W 092°08'0 0.0
2017-Sep-20 08:59N 29°49' W 092°08'0 0.0
2017-Sep-20 08:26N 29°49' W 092°08'0 0.0
2017-Sep-20 07:56N 29°49' W 092°08'0 0.0
2017-Sep-20 07:29N 29°49' W 092°08'0 0.0
2017-Sep-20 06:59N 29°49' W 092°08'0 0.0
2017-Sep-20 06:26N 29°49' W 092°08'0 0.0
2017-Sep-20 05:50N 29°49' W 092°08'0 0.0
2017-Sep-20 05:20N 29°49' W 092°08'0 0.0
2017-Sep-20 04:59N 29°49' W 092°08'0 0.0
2017-Sep-20 04:29N 29°49' W 092°08'0 0.0
2017-Sep-20 03:59N 29°49' W 092°08'0 0.0
2017-Sep-20 03:29N 29°49' W 092°08'0 0.0
2017-Sep-20 02:59N 29°49' W 092°08'2 3.5
2017-Sep-20 02:30N 29°48' W 092°08'3 6.4
2017-Sep-20 02:01N 29°46' W 092°11'5 9.4
2017-Sep-20 01:30N 29°42' W 092°15'5 9.0
2017-Sep-20 01:00N 29°38' W 092°16'1 0.2
2017-Sep-19 20:47N 29°39' W 092°16'2 8.0
2017-Sep-19 20:30N 29°41' W 092°15'4 8.4
2017-Sep-19 20:01N 29°45' W 092°13'4 7.6
2017-Sep-19 19:31N 29°47' W 092°10'3 4.7
2017-Sep-19 18:54N 29°49' W 092°08'0 0.0
2017-Sep-19 18:28N 29°49' W 092°08'0 0.0
2017-Sep-19 17:58N 29°49' W 092°08'0 0.0
2017-Sep-19 17:28N 29°49' W 092°08'0 0.0
2017-Sep-19 16:58N 29°49' W 092°08'0 0.0
2017-Sep-19 16:28N 29°49' W 092°08'0 0.0
2017-Sep-19 15:55N 29°49' W 092°08'0 0.0
2017-Sep-19 15:28N 29°49' W 092°08'0 0.0
2017-Sep-19 14:58N 29°49' W 092°08'0 0.0
2017-Sep-19 14:28N 29°49' W 092°08'0 0.0
2017-Sep-19 13:58N 29°49' W 092°08'0 0.0
2017-Sep-19 13:28N 29°49' W 092°08'0 0.0
2017-Sep-19 12:58N 29°49' W 092°08'0 0.0
2017-Sep-19 12:28N 29°49' W 092°08'0 0.0
2017-Sep-19 11:58N 29°49' W 092°08'0 0.0
2017-Sep-19 11:28N 29°49' W 092°08'0 0.0
2017-Sep-19 10:58N 29°49' W 092°08'0 0.0
2017-Sep-19 10:28N 29°49' W 092°08'0 0.0
2017-Sep-19 09:58N 29°49' W 092°08'0 0.0
2017-Sep-19 09:28N 29°49' W 092°08'0 0.0
2017-Sep-19 08:58N 29°49' W 092°08'0 0.0
2017-Sep-19 08:28N 29°49' W 092°08'0 0.0
2017-Sep-19 07:58N 29°49' W 092°08'0 0.0
2017-Sep-19 07:28N 29°49' W 092°08'0 0.0
2017-Sep-19 06:58N 29°49' W 092°08'0 0.0
2017-Sep-19 06:28N 29°49' W 092°08'0 0.0
2017-Sep-19 05:58N 29°49' W 092°08'0 0.0
2017-Sep-19 05:28N 29°49' W 092°08'0 0.0
2017-Sep-19 04:58N 29°49' W 092°08'0 0.0
2017-Sep-19 04:28N 29°49' W 092°08'0 0.0
2017-Sep-19 03:58N 29°49' W 092°08'0 0.0
2017-Sep-19 03:28N 29°49' W 092°08'0 0.0
2017-Sep-19 02:55N 29°49' W 092°08'0 0.0
2017-Sep-19 02:28N 29°49' W 092°08'0 0.0
2017-Sep-19 01:58N 29°49' W 092°08'0 0.0
2017-Sep-19 01:28N 29°49' W 092°08'0 0.0
2017-Sep-19 00:58N 29°49' W 092°08'0 0.0
2017-Sep-19 00:28N 29°49' W 092°08'0 0.0
2017-Sep-18 23:58N 29°49' W 092°08'0 0.0
2017-Sep-18 23:28N 29°49' W 092°08'0 0.0
2017-Sep-18 22:58N 29°49' W 092°08'0 0.0
2017-Sep-18 22:25N 29°49' W 092°08'0 0.0
2017-Sep-18 21:58N 29°49' W 092°08'0 0.0
2017-Sep-18 21:25N 29°49' W 092°08'0 0.0
2017-Sep-18 20:58N 29°49' W 092°08'0 0.0
2017-Sep-18 20:28N 29°49' W 092°08'0 0.0
2017-Sep-18 20:01N 29°49' W 092°08'0 0.0
2017-Sep-18 19:28N 29°49' W 092°08'0 0.0
2017-Sep-18 18:58N 29°49' W 092°08'0 0.0
2017-Sep-18 18:28N 29°49' W 092°08'0 0.0
2017-Sep-18 17:55N 29°49' W 092°08'0 0.0
2017-Sep-18 17:28N 29°49' W 092°08'0 0.0
2017-Sep-18 16:58N 29°49' W 092°08'0 0.0
2017-Sep-18 16:28N 29°49' W 092°08'0 0.0
2017-Sep-18 15:58N 29°49' W 092°08'0 0.0
2017-Sep-18 15:28N 29°49' W 092°08'0 0.0
2017-Sep-18 14:58N 29°49' W 092°08'0 0.0
2017-Sep-18 14:28N 29°49' W 092°08'0 0.0
2017-Sep-18 13:57N 29°49' W 092°08'0 0.0
2017-Sep-18 13:30N 29°49' W 092°08'0 0.0
2017-Sep-18 12:58N 29°49' W 092°08'0 0.0
2017-Sep-18 12:27N 29°49' W 092°08'0 0.0
2017-Sep-18 12:01N 29°49' W 092°08'0 0.0
2017-Sep-18 11:28N 29°49' W 092°08'0 0.0
2017-Sep-18 10:58N 29°49' W 092°08'0 0.0
2017-Sep-18 10:25N 29°49' W 092°08'0 0.0
2017-Sep-18 09:58N 29°49' W 092°08'0 0.0
2017-Sep-18 09:28N 29°49' W 092°08'0 0.0
2017-Sep-18 08:58N 29°49' W 092°08'0 0.0
2017-Sep-18 08:28N 29°49' W 092°08'0 0.0
2017-Sep-18 08:01N 29°49' W 092°08'0 0.0
2017-Sep-18 07:28N 29°49' W 092°08'0 0.0
2017-Sep-18 06:58N 29°49' W 092°08'0 0.0
2017-Sep-18 06:31N 29°49' W 092°08'0 0.0
2017-Sep-18 06:01N 29°49' W 092°08'0 0.0
2017-Sep-18 05:19N 29°49' W 092°08'0 0.0
2017-Sep-18 05:01N 29°49' W 092°08'0 0.0
2017-Sep-18 04:25N 29°49' W 092°08'0 0.0
2017-Sep-18 04:01N 29°49' W 092°08'0 0.0
2017-Sep-18 03:30N 29°49' W 092°08'0 0.0
2017-Sep-18 03:01N 29°49' W 092°08'0 0.0
2017-Sep-18 02:31N 29°49' W 092°08'0 0.0
2017-Sep-18 02:01N 29°49' W 092°08'0 0.0
2017-Sep-18 01:30N 29°49' W 092°08'0 0.0
2017-Sep-18 01:00N 29°49' W 092°08'0 0.0
2017-Sep-18 00:31N 29°49' W 092°08'0 0.0
2017-Sep-18 00:00N 29°49' W 092°08'0 0.0
2017-Sep-17 23:31N 29°49' W 092°08'0 0.0
2017-Sep-17 22:57N 29°49' W 092°08'0 0.0
2017-Sep-17 21:24N 29°49' W 092°08'0 0.0
2017-Sep-17 21:00N 29°49' W 092°08'0 0.0
2017-Sep-17 20:30N 29°49' W 092°08'0 0.0
2017-Sep-17 20:00N 29°49' W 092°08'0 0.0
2017-Sep-17 18:21N 29°49' W 092°08'0 0.0
2017-Sep-17 18:00N 29°49' W 092°08'0 0.0
2017-Sep-17 17:24N 29°49' W 092°08'0 0.0
2017-Sep-17 16:57N 29°49' W 092°08'0 0.0
2017-Sep-17 16:24N 29°49' W 092°08'0 0.0
2017-Sep-17 15:57N 29°49' W 092°08'0 0.0
2017-Sep-17 15:27N 29°49' W 092°08'0 0.0
2017-Sep-17 14:55N 29°49' W 092°08'0 0.0
2017-Sep-17 14:30N 29°49' W 092°08'0 0.0
2017-Sep-17 14:00N 29°49' W 092°08'0 0.0
2017-Sep-17 13:30N 29°49' W 092°08'0 0.0
2017-Sep-17 13:00N 29°49' W 092°08'0 0.0
2017-Sep-17 12:27N 29°49' W 092°08'0 0.0
2017-Sep-17 12:00N 29°49' W 092°08'0 0.0
2017-Sep-17 11:30N 29°49' W 092°08'0 0.0
2017-Sep-17 11:00N 29°49' W 092°08'0 0.0
2017-Sep-17 10:30N 29°49' W 092°08'0 0.0
2017-Sep-17 10:00N 29°49' W 092°08'0 0.0
2017-Sep-17 09:30N 29°49' W 092°08'0 0.0
2017-Sep-17 09:00N 29°49' W 092°08'0 0.0
2017-Sep-17 08:30N 29°49' W 092°08'0 0.0
2017-Sep-17 07:51N 29°49' W 092°08'0 0.0
2017-Sep-17 07:30N 29°49' W 092°08'0 0.0
2017-Sep-17 06:57N 29°49' W 092°08'0 0.0
2017-Sep-17 06:27N 29°49' W 092°08'0 0.0
2017-Sep-17 05:57N 29°49' W 092°08'0 0.0
2017-Sep-17 05:27N 29°49' W 092°08'0 0.0
2017-Sep-17 04:45N 29°49' W 092°08'0 0.0
2017-Sep-17 04:30N 29°49' W 092°08'0 0.0
2017-Sep-17 03:57N 29°49' W 092°08'0 0.0
2017-Sep-17 03:30N 29°49' W 092°08'0 0.0
2017-Sep-17 02:51N 29°49' W 092°08'0 0.0
2017-Sep-17 01:36N 29°49' W 092°08'0 0.0
2017-Sep-17 01:30N 29°49' W 092°08'0 0.0
2017-Sep-17 00:51N 29°49' W 092°08'0 0.0
2017-Sep-17 00:15N 29°49' W 092°08'0 0.0
2017-Sep-16 23:57N 29°49' W 092°08'0 0.0
2017-Sep-16 23:24N 29°49' W 092°08'0 0.0
2017-Sep-16 23:00N 29°49' W 092°08'0 0.0
2017-Sep-16 22:24N 29°49' W 092°08'0 0.0
2017-Sep-16 22:00N 29°49' W 092°08'0 0.0
2017-Sep-16 21:27N 29°49' W 092°08'0 0.0
2017-Sep-16 21:00N 29°49' W 092°08'0 0.0
2017-Sep-16 20:15N 29°49' W 092°08'0 0.0
2017-Sep-16 19:57N 29°49' W 092°08'0 0.0
2017-Sep-16 19:30N 29°49' W 092°08'0 0.0
2017-Sep-16 19:00N 29°49' W 092°08'0 0.1
2017-Sep-16 18:29N 29°49' W 092°08'1 2.2
2017-Sep-16 18:00N 29°48' W 092°08'3 6.9
2017-Sep-16 17:30N 29°46' W 092°11'5 9.8
2017-Sep-16 17:00N 29°42' W 092°15'3 0.8
2017-Sep-16 12:50N 29°39' W 092°16'3 9.5
2017-Sep-16 12:30N 29°42' W 092°15'5 9.8
2017-Sep-16 12:00N 29°46' W 092°11'3 7.0
2017-Sep-16 11:30N 29°48' W 092°08'1 2.8
2017-Sep-16 11:00N 29°49' W 092°08'0 0.0
2017-Sep-16 10:27N 29°49' W 092°08'0 0.0
2017-Sep-16 10:00N 29°49' W 092°08'0 0.0
2017-Sep-16 09:27N 29°49' W 092°08'0 0.0
2017-Sep-16 09:00N 29°49' W 092°08'0 0.0
2017-Sep-16 08:30N 29°49' W 092°08'0 0.0
2017-Sep-16 08:00N 29°49' W 092°08'0 0.0
2017-Sep-16 07:30N 29°49' W 092°08'0 0.0
2017-Sep-16 07:00N 29°49' W 092°08'0 0.0
2017-Sep-16 06:30N 29°49' W 092°08'0 0.0
2017-Sep-16 06:00N 29°49' W 092°08'0 0.0
2017-Sep-16 05:30N 29°49' W 092°08'0 0.0
2017-Sep-16 05:00N 29°49' W 092°08'0 0.0
2017-Sep-16 04:30N 29°49' W 092°08'0 0.0
2017-Sep-16 03:54N 29°49' W 092°08'0 0.0
2017-Sep-16 03:30N 29°49' W 092°08'0 0.0
2017-Sep-16 03:00N 29°49' W 092°08'0 0.0
2017-Sep-16 02:30N 29°49' W 092°08'0 0.0
2017-Sep-16 02:00N 29°49' W 092°08'0 0.0
2017-Sep-16 01:27N 29°49' W 092°08'0 0.0
2017-Sep-16 01:00N 29°49' W 092°08'0 0.0
2017-Sep-16 00:24N 29°49' W 092°08'0 0.0
2017-Sep-16 00:00N 29°49' W 092°08'0 0.0
2017-Sep-15 23:27N 29°49' W 092°08'0 0.0
2017-Sep-15 22:57N 29°49' W 092°08'0 0.0
2017-Sep-15 22:30N 29°49' W 092°08'0 0.0
2017-Sep-15 22:00N 29°49' W 092°08'0 0.0
2017-Sep-15 21:30N 29°49' W 092°08'0 0.0
2017-Sep-15 21:00N 29°49' W 092°08'0 0.0
2017-Sep-15 20:27N 29°49' W 092°08'0 0.0
2017-Sep-15 20:00N 29°49' W 092°08'0 0.0
2017-Sep-15 19:30N 29°49' W 092°08'0 0.0
2017-Sep-15 19:00N 29°49' W 092°08'1 2.1
2017-Sep-15 18:30N 29°48' W 092°08'3 5.9
2017-Sep-15 18:00N 29°46' W 092°11'5 9.6
2017-Sep-15 17:30N 29°43' W 092°15'9 0.6
2017-Sep-15 03:39N 29°49' W 092°08'0 0.0
2017-Sep-15 03:30N 29°49' W 092°08'0 0.0
2017-Sep-15 03:00N 29°49' W 092°08'0 0.0
2017-Sep-15 02:30N 29°49' W 092°08'0 0.0
2017-Sep-15 02:01N 29°49' W 092°08'0 0.0
2017-Sep-15 01:30N 29°49' W 092°08'0 0.0
2017-Sep-15 01:00N 29°49' W 092°08'0 0.0
2017-Sep-15 00:31N 29°49' W 092°08'0 0.0
2017-Sep-15 00:00N 29°49' W 092°08'0 0.0
2017-Sep-14 23:30N 29°49' W 092°08'0 0.0
2017-Sep-14 23:00N 29°49' W 092°08'0 0.0
2017-Sep-14 22:27N 29°49' W 092°08'0 0.0
2017-Sep-14 22:00N 29°49' W 092°08'0 0.0
2017-Sep-14 21:30N 29°49' W 092°08'0 0.0
2017-Sep-14 21:00N 29°49' W 092°08'0 0.0
2017-Sep-14 20:30N 29°49' W 092°08'0 0.0
2017-Sep-14 20:00N 29°49' W 092°08'0 0.0
2017-Sep-14 19:30N 29°49' W 092°08'0 0.0
2017-Sep-14 18:59N 29°49' W 092°08'3 5.3
2017-Sep-14 18:30N 29°47' W 092°09'5 9.1
2017-Sep-14 18:00N 29°45' W 092°13'5 9.2
2017-Sep-14 17:29N 29°40' W 092°15'2 0.4
2017-Sep-14 12:54N 29°38' W 092°16'4 8.9
2017-Sep-14 12:30N 29°42' W 092°15'5 9.6
2017-Sep-14 12:00N 29°46' W 092°12'3 6.6
2017-Sep-14 11:31N 29°48' W 092°09'2 3.1
2017-Sep-14 11:00N 29°49' W 092°08'0 0.6
2017-Sep-14 10:29N 29°49' W 092°08'0 0.0
2017-Sep-14 09:58N 29°49' W 092°08'0 0.0
2017-Sep-14 09:28N 29°49' W 092°08'0 0.0
2017-Sep-14 08:58N 29°49' W 092°08'0 0.0
2017-Sep-14 08:28N 29°49' W 092°08'0 0.0
2017-Sep-14 07:58N 29°49' W 092°08'0 0.0
2017-Sep-14 07:28N 29°49' W 092°08'0 0.0
2017-Sep-14 06:58N 29°49' W 092°08'0 0.0
2017-Sep-14 06:28N 29°49' W 092°08'0 0.0
2017-Sep-14 05:58N 29°49' W 092°08'0 0.0
2017-Sep-14 05:28N 29°49' W 092°08'0 0.0
2017-Sep-14 04:58N 29°49' W 092°08'0 0.0
2017-Sep-14 04:28N 29°49' W 092°08'0 0.0
2017-Sep-14 03:58N 29°49' W 092°08'0 0.0
2017-Sep-14 03:25N 29°49' W 092°08'0 0.0
2017-Sep-14 03:01N 29°49' W 092°08'0 0.0
2017-Sep-14 02:28N 29°49' W 092°08'0 0.0
2017-Sep-14 01:58N 29°49' W 092°08'0 0.0
2017-Sep-14 01:31N 29°49' W 092°08'0 0.0
2017-Sep-14 01:00N 29°49' W 092°08'0 0.0
2017-Sep-14 00:28N 29°49' W 092°08'0 0.0
2017-Sep-14 00:01N 29°49' W 092°08'0 0.0
2017-Sep-13 23:31N 29°49' W 092°08'0 0.0
2017-Sep-13 23:00N 29°49' W 092°08'0 0.0
2017-Sep-13 22:30N 29°49' W 092°08'0 0.0
2017-Sep-13 21:58N 29°49' W 092°08'0 0.0
2017-Sep-13 21:27N 29°49' W 092°08'0 0.0
2017-Sep-13 21:01N 29°49' W 092°08'0 0.0
2017-Sep-13 20:31N 29°49' W 092°08'0 0.0
2017-Sep-13 20:01N 29°49' W 092°08'0 0.0
2017-Sep-13 19:31N 29°49' W 092°08'0 0.0
2017-Sep-13 18:55N 29°49' W 092°08'0 0.0
2017-Sep-13 18:31N 29°49' W 092°08'0 0.0
2017-Sep-13 18:00N 29°49' W 092°08'0 0.0
2017-Sep-13 17:30N 29°49' W 092°08'0 0.0
2017-Sep-13 17:00N 29°49' W 092°08'0 0.0
2017-Sep-13 16:31N 29°49' W 092°08'0 0.0
2017-Sep-13 15:55N 29°49' W 092°08'0 0.0
2017-Sep-13 15:30N 29°49' W 092°08'0 0.0
2017-Sep-13 15:00N 29°49' W 092°08'0 0.0
2017-Sep-13 14:30N 29°49' W 092°08'0 0.0
2017-Sep-13 13:58N 29°49' W 092°08'0 0.0
2017-Sep-13 13:27N 29°49' W 092°08'0 0.0
2017-Sep-13 13:00N 29°49' W 092°08'0 0.0
2017-Sep-13 12:30N 29°49' W 092°08'0 0.0
2017-Sep-13 11:57N 29°49' W 092°08'0 0.0
2017-Sep-13 11:28N 29°49' W 092°08'0 0.0
2017-Sep-13 11:00N 29°49' W 092°08'0 0.0
2017-Sep-13 10:30N 29°49' W 092°08'0 0.0
2017-Sep-13 10:00N 29°49' W 092°08'0 0.0
2017-Sep-13 09:30N 29°49' W 092°08'0 0.0
2017-Sep-13 09:00N 29°49' W 092°08'0 0.0
2017-Sep-13 08:30N 29°49' W 092°08'0 0.0
2017-Sep-13 08:00N 29°49' W 092°08'0 0.0
2017-Sep-13 07:30N 29°49' W 092°08'0 0.0
2017-Sep-13 07:00N 29°49' W 092°08'0 0.0
2017-Sep-13 06:30N 29°49' W 092°08'0 0.0
2017-Sep-13 06:00N 29°49' W 092°08'0 0.0
2017-Sep-13 05:28N 29°49' W 092°08'0 0.0
2017-Sep-13 05:00N 29°49' W 092°08'0 0.0
2017-Sep-13 04:28N 29°49' W 092°08'0 0.0
2017-Sep-13 04:00N 29°49' W 092°08'0 0.0
2017-Sep-13 03:30N 29°49' W 092°08'0 0.0
2017-Sep-13 03:00N 29°49' W 092°08'0 0.0
2017-Sep-13 02:30N 29°49' W 092°08'0 0.0
2017-Sep-13 02:00N 29°49' W 092°08'0 0.0
2017-Sep-13 01:30N 29°49' W 092°08'0 0.0
2017-Sep-13 01:00N 29°49' W 092°08'0 0.0
2017-Sep-13 00:30N 29°49' W 092°08'0 0.0
2017-Sep-13 00:00N 29°49' W 092°08'0 0.0
2017-Sep-12 23:31N 29°49' W 092°08'0 0.0
2017-Sep-12 23:00N 29°49' W 092°08'0 0.0
2017-Sep-12 22:30N 29°49' W 092°08'0 0.0
2017-Sep-12 22:00N 29°49' W 092°08'0 0.0
2017-Sep-12 21:15N 29°49' W 092°08'0 0.0
2017-Sep-12 21:00N 29°49' W 092°08'0 0.0
2017-Sep-12 20:30N 29°49' W 092°08'0 0.0
2017-Sep-12 20:00N 29°49' W 092°08'0 0.0
2017-Sep-12 19:30N 29°49' W 092°08'1 2.5
2017-Sep-12 19:01N 29°48' W 092°08'2 4.3
2017-Sep-12 18:31N 29°47' W 092°10'5 9.8
2017-Sep-12 18:01N 29°44' W 092°15'5 9.3
2017-Sep-12 17:30N 29°39' W 092°16'0 0.1
2017-Sep-12 12:57N 29°40' W 092°15'4 7.7
2017-Sep-12 12:29N 29°43' W 092°15'4 8.6
2017-Sep-12 11:59N 29°46' W 092°11'3 6.3
2017-Sep-12 11:29N 29°48' W 092°08'1 1.4
2017-Sep-12 10:28N 29°49' W 092°08'0 0.0
2017-Sep-12 07:58N 29°49' W 092°08'0 0.0
2017-Sep-12 06:34N 29°49' W 092°08'0 0.1
2017-Sep-12 06:28N 29°49' W 092°08'0 0.0
2017-Sep-12 05:58N 29°49' W 092°08'0 0.0
2017-Sep-12 05:28N 29°49' W 092°08'0 0.0
2017-Sep-12 04:58N 29°49' W 092°08'0 0.0
2017-Sep-12 04:28N 29°49' W 092°08'0 0.0
2017-Sep-12 04:01N 29°49' W 092°08'0 0.0
2017-Sep-12 03:28N 29°49' W 092°08'0 0.0
2017-Sep-12 02:58N 29°49' W 092°08'0 0.0
2017-Sep-12 02:28N 29°49' W 092°08'0 0.0
2017-Sep-12 01:58N 29°49' W 092°08'  
Track history (hours):
 
Tides and Currents Weather Stations Pressure Air Temp Water Temp Dewpoint Dewpoint Depression Visibility Wind Speed Wind Dir Waves Ship Positions

Mermentau

Owner: OMEGA PROTEIN INC., Moss Point, MS. More information available from US FCC via Universal Licensing System and Coast Guard Vessel Documentation Center.

Last reported at 2017-Sep-22 01:53 UTC. Time now 2017-Sep-23 23:48 UTC.
Position N 29°49' W 092°08'.

Length 45 m; draft 3.4 m.

Type: Fishing. MMSI: 367331320.

Date/timePositionNaut miles runAvg speedWind from/ knotsBaromVisibWave heightAir tempDewpointWater temp
2017-Sep-22 01:53N 29°49' W 092°08'0 0.0
2017-Sep-22 01:29N 29°49' W 092°08'0 0.0
2017-Sep-22 00:59N 29°49' W 092°08'0 0.0
2017-Sep-22 00:29N 29°49' W 092°08'0 0.0
2017-Sep-21 23:59N 29°49' W 092°08'0 0.0
2017-Sep-21 23:29N 29°49' W 092°08'0 0.0
2017-Sep-21 22:59N 29°49' W 092°08'0 0.0
2017-Sep-21 22:29N 29°49' W 092°08'0 0.0
2017-Sep-21 21:59N 29°49' W 092°08'0 0.0
2017-Sep-21 21:26N 29°49' W 092°08'0 0.0
2017-Sep-21 20:59N 29°49' W 092°08'0 0.0
2017-Sep-21 20:29N 29°49' W 092°08'0 0.0
2017-Sep-21 19:59N 29°49' W 092°08'0 0.0
2017-Sep-21 19:26N 29°49' W 092°08'0 0.1
2017-Sep-21 18:58N 29°49' W 092°08'0 0.0
2017-Sep-21 18:28N 29°49' W 092°08'2 4.1
2017-Sep-21 18:00N 29°47' W 092°09'4 8.4
2017-Sep-21 17:30N 29°45' W 092°13'5 9.5
2017-Sep-21 17:00N 29°41' W 092°15'3 0.6
2017-Sep-21 12:43N 29°38' W 092°16'2 8.4
2017-Sep-21 12:26N 29°41' W 092°15'4 9.3
2017-Sep-21 12:01N 29°44' W 092°14'4 8.9
2017-Sep-21 11:30N 29°47' W 092°10'3 5.5
2017-Sep-21 11:01N 29°49' W 092°08'0 0.4
2017-Sep-21 10:29N 29°49' W 092°08'0 0.0
2017-Sep-21 09:59N 29°49' W 092°08'0 0.0
2017-Sep-21 09:29N 29°49' W 092°08'0 0.0
2017-Sep-21 08:56N 29°49' W 092°08'0 0.0
2017-Sep-21 08:29N 29°49' W 092°08'0 0.0
2017-Sep-21 07:56N 29°49' W 092°08'0 0.0
2017-Sep-21 07:29N 29°49' W 092°08'0 0.0
2017-Sep-21 06:59N 29°49' W 092°08'0 0.0
2017-Sep-21 06:26N 29°49' W 092°08'0 0.0
2017-Sep-21 05:59N 29°49' W 092°08'0 0.0
2017-Sep-21 05:26N 29°49' W 092°08'0 0.0
2017-Sep-21 04:59N 29°49' W 092°08'0 0.0
2017-Sep-21 04:20N 29°49' W 092°08'0 0.0
2017-Sep-21 03:59N 29°49' W 092°08'0 0.0
2017-Sep-21 03:29N 29°49' W 092°08'0 0.0
2017-Sep-21 02:59N 29°49' W 092°08'0 0.0
2017-Sep-21 02:29N 29°49' W 092°08'0 0.0
2017-Sep-21 01:56N 29°49' W 092°08'0 0.0
2017-Sep-21 01:29N 29°49' W 092°08'0 0.0
2017-Sep-21 00:59N 29°49' W 092°08'0 0.0
2017-Sep-21 00:29N 29°49' W 092°08'0 0.0
2017-Sep-20 23:59N 29°49' W 092°08'0 0.0
2017-Sep-20 23:23N 29°49' W 092°08'0 0.0
2017-Sep-20 22:44N 29°49' W 092°08'0 0.0
2017-Sep-20 22:20N 29°49' W 092°08'0 0.0
2017-Sep-20 21:56N 29°49' W 092°08'0 0.0
2017-Sep-20 21:26N 29°49' W 092°08'0 0.0
2017-Sep-20 20:59N 29°49' W 092°08'0 0.0
2017-Sep-20 20:29N 29°49' W 092°08'0 0.0
2017-Sep-20 19:58N 29°49' W 092°08'0 0.0
2017-Sep-20 19:29N 29°49' W 092°08'0 0.0
2017-Sep-20 18:58N 29°49' W 092°08'1 2.2
2017-Sep-20 18:30N 29°48' W 092°08'4 7.7
2017-Sep-20 18:01N 29°46' W 092°11'5 9.5
2017-Sep-20 17:31N 29°42' W 092°15'2 0.5
2017-Sep-20 12:53N 29°40' W 092°15'3 8.2
2017-Sep-20 12:30N 29°43' W 092°15'5 9.5
2017-Sep-20 12:00N 29°46' W 092°11'3 6.0
2017-Sep-20 11:31N 29°48' W 092°08'1 2.2
2017-Sep-20 10:58N 29°49' W 092°08'0 0.0
2017-Sep-20 10:29N 29°49' W 092°08'0 0.0
2017-Sep-20 09:59N 29°49' W 092°08'0 0.0
2017-Sep-20 09:29N 29°49' W 092°08'0 0.0
2017-Sep-20 08:59N 29°49' W 092°08'0 0.0
2017-Sep-20 08:26N 29°49' W 092°08'0 0.0
2017-Sep-20 07:56N 29°49' W 092°08'0 0.0
2017-Sep-20 07:29N 29°49' W 092°08'0 0.0
2017-Sep-20 06:59N 29°49' W 092°08'0 0.0
2017-Sep-20 06:26N 29°49' W 092°08'0 0.0
2017-Sep-20 05:50N 29°49' W 092°08'0 0.0
2017-Sep-20 05:20N 29°49' W 092°08'0 0.0
2017-Sep-20 04:59N 29°49' W 092°08'0 0.0
2017-Sep-20 04:29N 29°49' W 092°08'0 0.0
2017-Sep-20 03:59N 29°49' W 092°08'0 0.0
2017-Sep-20 03:29N 29°49' W 092°08'0 0.0
2017-Sep-20 02:59N 29°49' W 092°08'2 3.5
2017-Sep-20 02:30N 29°48' W 092°08'3 6.4
2017-Sep-20 02:01N 29°46' W 092°11'5 9.4
2017-Sep-20 01:30N 29°42' W 092°15'5 9.0
2017-Sep-20 01:00N 29°38' W 092°16'1 0.2
2017-Sep-19 20:47N 29°39' W 092°16'2 8.0
2017-Sep-19 20:30N 29°41' W 092°15'4 8.4
2017-Sep-19 20:01N 29°45' W 092°13'4 7.6
2017-Sep-19 19:31N 29°47' W 092°10'3 4.7
2017-Sep-19 18:54N 29°49' W 092°08'0 0.0
2017-Sep-19 18:28N 29°49' W 092°08'0 0.0
2017-Sep-19 17:58N 29°49' W 092°08'0 0.0
2017-Sep-19 17:28N 29°49' W 092°08'0 0.0
2017-Sep-19 16:58N 29°49' W 092°08'0 0.0
2017-Sep-19 16:28N 29°49' W 092°08'0 0.0
2017-Sep-19 15:55N 29°49' W 092°08'0 0.0
2017-Sep-19 15:28N 29°49' W 092°08'0 0.0
2017-Sep-19 14:58N 29°49' W 092°08'0 0.0
2017-Sep-19 14:28N 29°49' W 092°08'0 0.0
2017-Sep-19 13:58N 29°49' W 092°08'0 0.0
2017-Sep-19 13:28N 29°49' W 092°08'0 0.0
2017-Sep-19 12:58N 29°49' W 092°08'0 0.0
2017-Sep-19 12:28N 29°49' W 092°08'0 0.0
2017-Sep-19 11:58N 29°49' W 092°08'0 0.0
2017-Sep-19 11:28N 29°49' W 092°08'0 0.0
2017-Sep-19 10:58N 29°49' W 092°08'0 0.0
2017-Sep-19 10:28N 29°49' W 092°08'0 0.0
2017-Sep-19 09:58N 29°49' W 092°08'0 0.0
2017-Sep-19 09:28N 29°49' W 092°08'0 0.0
2017-Sep-19 08:58N 29°49' W 092°08'0 0.0
2017-Sep-19 08:28N 29°49' W 092°08'0 0.0
2017-Sep-19 07:58N 29°49' W 092°08'0 0.0
2017-Sep-19 07:28N 29°49' W 092°08'0 0.0
2017-Sep-19 06:58N 29°49' W 092°08'0 0.0
2017-Sep-19 06:28N 29°49' W 092°08'0 0.0
2017-Sep-19 05:58N 29°49' W 092°08'0 0.0
2017-Sep-19 05:28N 29°49' W 092°08'0 0.0
2017-Sep-19 04:58N 29°49' W 092°08'0 0.0
2017-Sep-19 04:28N 29°49' W 092°08'0 0.0
2017-Sep-19 03:58N 29°49' W 092°08'0 0.0
2017-Sep-19 03:28N 29°49' W 092°08'0 0.0
2017-Sep-19 02:55N 29°49' W 092°08'0 0.0
2017-Sep-19 02:28N 29°49' W 092°08'0 0.0
2017-Sep-19 01:58N 29°49' W 092°08'0 0.0
2017-Sep-19 01:28N 29°49' W 092°08'0 0.0
2017-Sep-19 00:58N 29°49' W 092°08'0 0.0
2017-Sep-19 00:28N 29°49' W 092°08'0 0.0
2017-Sep-18 23:58N 29°49' W 092°08'0 0.0
2017-Sep-18 23:28N 29°49' W 092°08'0 0.0
2017-Sep-18 22:58N 29°49' W 092°08'0 0.0
2017-Sep-18 22:25N 29°49' W 092°08'0 0.0
2017-Sep-18 21:58N 29°49' W 092°08'0 0.0
2017-Sep-18 21:25N 29°49' W 092°08'0 0.0
2017-Sep-18 20:58N 29°49' W 092°08'0 0.0
2017-Sep-18 20:28N 29°49' W 092°08'0 0.0
2017-Sep-18 20:01N 29°49' W 092°08'0 0.0
2017-Sep-18 19:28N 29°49' W 092°08'0 0.0
2017-Sep-18 18:58N 29°49' W 092°08'0 0.0
2017-Sep-18 18:28N 29°49' W 092°08'0 0.0
2017-Sep-18 17:55N 29°49' W 092°08'0 0.0
2017-Sep-18 17:28N 29°49' W 092°08'0 0.0
2017-Sep-18 16:58N 29°49' W 092°08'0 0.0
2017-Sep-18 16:28N 29°49' W 092°08'0 0.0
2017-Sep-18 15:58N 29°49' W 092°08'0 0.0
2017-Sep-18 15:28N 29°49' W 092°08'0 0.0
2017-Sep-18 14:58N 29°49' W 092°08'0 0.0
2017-Sep-18 14:28N 29°49' W 092°08'0 0.0
2017-Sep-18 13:57N 29°49' W 092°08'0 0.0
2017-Sep-18 13:30N 29°49' W 092°08'0 0.0
2017-Sep-18 12:58N 29°49' W 092°08'0 0.0
2017-Sep-18 12:27N 29°49' W 092°08'0 0.0
2017-Sep-18 12:01N 29°49' W 092°08'0 0.0
2017-Sep-18 11:28N 29°49' W 092°08'0 0.0
2017-Sep-18 10:58N 29°49' W 092°08'0 0.0
2017-Sep-18 10:25N 29°49' W 092°08'0 0.0
2017-Sep-18 09:58N 29°49' W 092°08'0 0.0
2017-Sep-18 09:28N 29°49' W 092°08'0 0.0
2017-Sep-18 08:58N 29°49' W 092°08'0 0.0
2017-Sep-18 08:28N 29°49' W 092°08'0 0.0
2017-Sep-18 08:01N 29°49' W 092°08'0 0.0
2017-Sep-18 07:28N 29°49' W 092°08'0 0.0
2017-Sep-18 06:58N 29°49' W 092°08'0 0.0
2017-Sep-18 06:31N 29°49' W 092°08'0 0.0
2017-Sep-18 06:01N 29°49' W 092°08'0 0.0
2017-Sep-18 05:19N 29°49' W 092°08'0 0.0
2017-Sep-18 05:01N 29°49' W 092°08'0 0.0
2017-Sep-18 04:25N 29°49' W 092°08'0 0.0
2017-Sep-18 04:01N 29°49' W 092°08'0 0.0
2017-Sep-18 03:30N 29°49' W 092°08'0 0.0
2017-Sep-18 03:01N 29°49' W 092°08'0 0.0
2017-Sep-18 02:31N 29°49' W 092°08'0 0.0
2017-Sep-18 02:01N 29°49' W 092°08'0 0.0
2017-Sep-18 01:30N 29°49' W 092°08'0 0.0
2017-Sep-18 01:00N 29°49' W 092°08'0 0.0
2017-Sep-18 00:31N 29°49' W 092°08'0 0.0
2017-Sep-18 00:00N 29°49' W 092°08'0 0.0
2017-Sep-17 23:31N 29°49' W 092°08'0 0.0
2017-Sep-17 22:57N 29°49' W 092°08'0 0.0
2017-Sep-17 21:24N 29°49' W 092°08'0 0.0
2017-Sep-17 21:00N 29°49' W 092°08'0 0.0
2017-Sep-17 20:30N 29°49' W 092°08'0 0.0
2017-Sep-17 20:00N 29°49' W 092°08'0 0.0
2017-Sep-17 18:21N 29°49' W 092°08'0 0.0
2017-Sep-17 18:00N 29°49' W 092°08'0 0.0
2017-Sep-17 17:24N 29°49' W 092°08'0 0.0
2017-Sep-17 16:57N 29°49' W 092°08'0 0.0
2017-Sep-17 16:24N 29°49' W 092°08'0 0.0
2017-Sep-17 15:57N 29°49' W 092°08'0 0.0
2017-Sep-17 15:27N 29°49' W 092°08'0 0.0
2017-Sep-17 14:55N 29°49' W 092°08'0 0.0
2017-Sep-17 14:30N 29°49' W 092°08'0 0.0
2017-Sep-17 14:00N 29°49' W 092°08'0 0.0
2017-Sep-17 13:30N 29°49' W 092°08'0 0.0
2017-Sep-17 13:00N 29°49' W 092°08'0 0.0
2017-Sep-17 12:27N 29°49' W 092°08'0 0.0
2017-Sep-17 12:00N 29°49' W 092°08'0 0.0
2017-Sep-17 11:30N 29°49' W 092°08'0 0.0
2017-Sep-17 11:00N 29°49' W 092°08'0 0.0
2017-Sep-17 10:30N 29°49' W 092°08'0 0.0
2017-Sep-17 10:00N 29°49' W 092°08'0 0.0
2017-Sep-17 09:30N 29°49' W 092°08'0 0.0
2017-Sep-17 09:00N 29°49' W 092°08'0 0.0
2017-Sep-17 08:30N 29°49' W 092°08'0 0.0
2017-Sep-17 07:51N 29°49' W 092°08'0 0.0
2017-Sep-17 07:30N 29°49' W 092°08'0 0.0
2017-Sep-17 06:57N 29°49' W 092°08'0 0.0
2017-Sep-17 06:27N 29°49' W 092°08'0 0.0
2017-Sep-17 05:57N 29°49' W 092°08'0 0.0
2017-Sep-17 05:27N 29°49' W 092°08'0 0.0
2017-Sep-17 04:45N 29°49' W 092°08'0 0.0
2017-Sep-17 04:30N 29°49' W 092°08'0 0.0
2017-Sep-17 03:57N 29°49' W 092°08'0 0.0
2017-Sep-17 03:30N 29°49' W 092°08'0 0.0
2017-Sep-17 02:51N 29°49' W 092°08'0 0.0
2017-Sep-17 01:36N 29°49' W 092°08'0 0.0
2017-Sep-17 01:30N 29°49' W 092°08'0 0.0
2017-Sep-17 00:51N 29°49' W 092°08'0 0.0
2017-Sep-17 00:15N 29°49' W 092°08'0 0.0
2017-Sep-16 23:57N 29°49' W 092°08'0 0.0
2017-Sep-16 23:24N 29°49' W 092°08'0 0.0
2017-Sep-16 23:00N 29°49' W 092°08'0 0.0
2017-Sep-16 22:24N 29°49' W 092°08'0 0.0
2017-Sep-16 22:00N 29°49' W 092°08'0 0.0
2017-Sep-16 21:27N 29°49' W 092°08'0 0.0
2017-Sep-16 21:00N 29°49' W 092°08'0 0.0
2017-Sep-16 20:15N 29°49' W 092°08'0 0.0
2017-Sep-16 19:57N 29°49' W 092°08'0 0.0
2017-Sep-16 19:30N 29°49' W 092°08'0 0.0
2017-Sep-16 19:00N 29°49' W 092°08'0 0.1
2017-Sep-16 18:29N 29°49' W 092°08'1 2.2
2017-Sep-16 18:00N 29°48' W 092°08'3 6.9
2017-Sep-16 17:30N 29°46' W 092°11'5 9.8
2017-Sep-16 17:00N 29°42' W 092°15'3 0.8
2017-Sep-16 12:50N 29°39' W 092°16'3 9.5
2017-Sep-16 12:30N 29°42' W 092°15'5 9.8
2017-Sep-16 12:00N 29°46' W 092°11'3 7.0
2017-Sep-16 11:30N 29°48' W 092°08'1 2.8
2017-Sep-16 11:00N 29°49' W 092°08'0 0.0
2017-Sep-16 10:27N 29°49' W 092°08'0 0.0
2017-Sep-16 10:00N 29°49' W 092°08'0 0.0
2017-Sep-16 09:27N 29°49' W 092°08'0 0.0
2017-Sep-16 09:00N 29°49' W 092°08'0 0.0
2017-Sep-16 08:30N 29°49' W 092°08'0 0.0
2017-Sep-16 08:00N 29°49' W 092°08'0 0.0
2017-Sep-16 07:30N 29°49' W 092°08'0 0.0
2017-Sep-16 07:00N 29°49' W 092°08'0 0.0
2017-Sep-16 06:30N 29°49' W 092°08'0 0.0
2017-Sep-16 06:00N 29°49' W 092°08'0 0.0
2017-Sep-16 05:30N 29°49' W 092°08'0 0.0
2017-Sep-16 05:00N 29°49' W 092°08'0 0.0
2017-Sep-16 04:30N 29°49' W 092°08'0 0.0
2017-Sep-16 03:54N 29°49' W 092°08'0 0.0
2017-Sep-16 03:30N 29°49' W 092°08'0 0.0
2017-Sep-16 03:00N 29°49' W 092°08'0 0.0
2017-Sep-16 02:30N 29°49' W 092°08'0 0.0
2017-Sep-16 02:00N 29°49' W 092°08'0 0.0
2017-Sep-16 01:27N 29°49' W 092°08'0 0.0
2017-Sep-16 01:00N 29°49' W 092°08'0 0.0
2017-Sep-16 00:24N 29°49' W 092°08'0 0.0
2017-Sep-16 00:00N 29°49' W 092°08'0 0.0
2017-Sep-15 23:27N 29°49' W 092°08'0 0.0
2017-Sep-15 22:57N 29°49' W 092°08'0 0.0
2017-Sep-15 22:30N 29°49' W 092°08'0 0.0
2017-Sep-15 22:00N 29°49' W 092°08'0 0.0
2017-Sep-15 21:30N 29°49' W 092°08'0 0.0
2017-Sep-15 21:00N 29°49' W 092°08'0 0.0
2017-Sep-15 20:27N 29°49' W 092°08'0 0.0
2017-Sep-15 20:00N 29°49' W 092°08'0 0.0
2017-Sep-15 19:30N 29°49' W 092°08'0 0.0
2017-Sep-15 19:00N 29°49' W 092°08'1 2.1
2017-Sep-15 18:30N 29°48' W 092°08'3 5.9
2017-Sep-15 18:00N 29°46' W 092°11'5 9.6
2017-Sep-15 17:30N 29°43' W 092°15'9 0.6
2017-Sep-15 03:39N 29°49' W 092°08'0 0.0
2017-Sep-15 03:30N 29°49' W 092°08'0 0.0
2017-Sep-15 03:00N 29°49' W 092°08'0 0.0
2017-Sep-15 02:30N 29°49' W 092°08'0 0.0
2017-Sep-15 02:01N 29°49' W 092°08'0 0.0
2017-Sep-15 01:30N 29°49' W 092°08'0 0.0
2017-Sep-15 01:00N 29°49' W 092°08'0 0.0
2017-Sep-15 00:31N 29°49' W 092°08'0 0.0
2017-Sep-15 00:00N 29°49' W 092°08'0 0.0
2017-Sep-14 23:30N 29°49' W 092°08'0 0.0
2017-Sep-14 23:00N 29°49' W 092°08'0 0.0
2017-Sep-14 22:27N 29°49' W 092°08'0 0.0
2017-Sep-14 22:00N 29°49' W 092°08'0 0.0
2017-Sep-14 21:30N 29°49' W 092°08'0 0.0
2017-Sep-14 21:00N 29°49' W 092°08'0 0.0
2017-Sep-14 20:30N 29°49' W 092°08'0 0.0
2017-Sep-14 20:00N 29°49' W 092°08'0 0.0
2017-Sep-14 19:30N 29°49' W 092°08'0 0.0
2017-Sep-14 18:59N 29°49' W 092°08'3 5.3
2017-Sep-14 18:30N 29°47' W 092°09'5 9.1
2017-Sep-14 18:00N 29°45' W 092°13'5 9.2
2017-Sep-14 17:29N 29°40' W 092°15'2 0.4
2017-Sep-14 12:54N 29°38' W 092°16'4 8.9
2017-Sep-14 12:30N 29°42' W 092°15'5 9.6
2017-Sep-14 12:00N 29°46' W 092°12'3 6.6
2017-Sep-14 11:31N 29°48' W 092°09'2 3.1
2017-Sep-14 11:00N 29°49' W 092°08'0 0.6
2017-Sep-14 10:29N 29°49' W 092°08'0 0.0
2017-Sep-14 09:58N 29°49' W 092°08'0 0.0
2017-Sep-14 09:28N 29°49' W 092°08'0 0.0
2017-Sep-14 08:58N 29°49' W 092°08'0 0.0
2017-Sep-14 08:28N 29°49' W 092°08'0 0.0
2017-Sep-14 07:58N 29°49' W 092°08'0 0.0
2017-Sep-14 07:28N 29°49' W 092°08'0 0.0
2017-Sep-14 06:58N 29°49' W 092°08'0 0.0
2017-Sep-14 06:28N 29°49' W 092°08'0 0.0
2017-Sep-14 05:58N 29°49' W 092°08'0 0.0
2017-Sep-14 05:28N 29°49' W 092°08'0 0.0
2017-Sep-14 04:58N 29°49' W 092°08'0 0.0
2017-Sep-14 04:28N 29°49' W 092°08'0 0.0
2017-Sep-14 03:58N 29°49' W 092°08'0 0.0
2017-Sep-14 03:25N 29°49' W 092°08'0 0.0
2017-Sep-14 03:01N 29°49' W 092°08'0 0.0
2017-Sep-14 02:28N 29°49' W 092°08'0 0.0
2017-Sep-14 01:58N 29°49' W 092°08'0 0.0
2017-Sep-14 01:31N 29°49' W 092°08'0 0.0
2017-Sep-14 01:00N 29°49' W 092°08'0 0.0
2017-Sep-14 00:28N 29°49' W 092°08'0 0.0
2017-Sep-14 00:01N 29°49' W 092°08'0 0.0
2017-Sep-13 23:31N 29°49' W 092°08'0 0.0
2017-Sep-13 23:00N 29°49' W 092°08'0 0.0
2017-Sep-13 22:30N 29°49' W 092°08'0 0.0
2017-Sep-13 21:58N 29°49' W 092°08'0 0.0
2017-Sep-13 21:27N 29°49' W 092°08'0 0.0
2017-Sep-13 21:01N 29°49' W 092°08'0 0.0
2017-Sep-13 20:31N 29°49' W 092°08'0 0.0
2017-Sep-13 20:01N 29°49' W 092°08'0 0.0
2017-Sep-13 19:31N 29°49' W 092°08'0 0.0
2017-Sep-13 18:55N 29°49' W 092°08'0 0.0
2017-Sep-13 18:31N 29°49' W 092°08'0 0.0
2017-Sep-13 18:00N 29°49' W 092°08'0 0.0
2017-Sep-13 17:30N 29°49' W 092°08'0 0.0
2017-Sep-13 17:00N 29°49' W 092°08'0 0.0
2017-Sep-13 16:31N 29°49' W 092°08'0 0.0
2017-Sep-13 15:55N 29°49' W 092°08'0 0.0
2017-Sep-13 15:30N 29°49' W 092°08'0 0.0
2017-Sep-13 15:00N 29°49' W 092°08'0 0.0
2017-Sep-13 14:30N 29°49' W 092°08'0 0.0
2017-Sep-13 13:58N 29°49' W 092°08'0 0.0
2017-Sep-13 13:27N 29°49' W 092°08'0 0.0
2017-Sep-13 13:00N 29°49' W 092°08'0 0.0
2017-Sep-13 12:30N 29°49' W 092°08'0 0.0
2017-Sep-13 11:57N 29°49' W 092°08'0 0.0
2017-Sep-13 11:28N 29°49' W 092°08'0 0.0
2017-Sep-13 11:00N 29°49' W 092°08'0 0.0
2017-Sep-13 10:30N 29°49' W 092°08'0 0.0
2017-Sep-13 10:00N 29°49' W 092°08'0 0.0
2017-Sep-13 09:30N 29°49' W 092°08'0 0.0
2017-Sep-13 09:00N 29°49' W 092°08'0 0.0
2017-Sep-13 08:30N 29°49' W 092°08'0 0.0
2017-Sep-13 08:00N 29°49' W 092°08'0 0.0
2017-Sep-13 07:30N 29°49' W 092°08'0 0.0
2017-Sep-13 07:00N 29°49' W 092°08'0 0.0
2017-Sep-13 06:30N 29°49' W 092°08'0 0.0
2017-Sep-13 06:00N 29°49' W 092°08'0 0.0
2017-Sep-13 05:28N 29°49' W 092°08'0 0.0
2017-Sep-13 05:00N 29°49' W 092°08'0 0.0
2017-Sep-13 04:28N 29°49' W 092°08'0 0.0
2017-Sep-13 04:00N 29°49' W 092°08'0 0.0
2017-Sep-13 03:30N 29°49' W 092°08'0 0.0
2017-Sep-13 03:00N 29°49' W 092°08'0 0.0
2017-Sep-13 02:30N 29°49' W 092°08'0 0.0
2017-Sep-13 02:00N 29°49' W 092°08'0 0.0
2017-Sep-13 01:30N 29°49' W 092°08'0 0.0
2017-Sep-13 01:00N 29°49' W 092°08'0 0.0
2017-Sep-13 00:30N 29°49' W 092°08'0 0.0
2017-Sep-13 00:00N 29°49' W 092°08'0 0.0
2017-Sep-12 23:31N 29°49' W 092°08'0 0.0
2017-Sep-12 23:00N 29°49' W 092°08'0 0.0
2017-Sep-12 22:30N 29°49' W 092°08'0 0.0
2017-Sep-12 22:00N 29°49' W 092°08'0 0.0
2017-Sep-12 21:15N 29°49' W 092°08'0 0.0
2017-Sep-12 21:00N 29°49' W 092°08'0 0.0
2017-Sep-12 20:30N 29°49' W 092°08'0 0.0
2017-Sep-12 20:00N 29°49' W 092°08'0 0.0
2017-Sep-12 19:30N 29°49' W 092°08'1 2.5
2017-Sep-12 19:01N 29°48' W 092°08'2 4.3
2017-Sep-12 18:31N 29°47' W 092°10'5 9.8
2017-Sep-12 18:01N 29°44' W 092°15'5 9.3
2017-Sep-12 17:30N 29°39' W 092°16'0 0.1
2017-Sep-12 12:57N 29°40' W 092°15'4 7.7
2017-Sep-12 12:29N 29°43' W 092°15'4 8.6
2017-Sep-12 11:59N 29°46' W 092°11'3 6.3
2017-Sep-12 11:29N 29°48' W 092°08'1 1.4
2017-Sep-12 10:28N 29°49' W 092°08'0 0.0
2017-Sep-12 07:58N 29°49' W 092°08'0 0.0
2017-Sep-12 06:34N 29°49' W 092°08'0 0.1
2017-Sep-12 06:28N 29°49' W 092°08'0 0.0
2017-Sep-12 05:58N 29°49' W 092°08'0 0.0
2017-Sep-12 05:28N 29°49' W 092°08'0 0.0
2017-Sep-12 04:58N 29°49' W 092°08'0 0.0
2017-Sep-12 04:28N 29°49' W 092°08'0 0.0
2017-Sep-12 04:01N 29°49' W 092°08'0 0.0
2017-Sep-12 03:28N 29°49' W 092°08'0 0.0
2017-Sep-12 02:58N 29°49' W 092°08'0 0.0
2017-Sep-12 02:28N 29°49' W 092°08'0 0.0
2017-Sep-12 01:58N 29°49' W 092°08'  

Dump ship's entire track history